Glen Aubrey, New York
Current Conditions -  °F | °C
As of 10:05 PM on Wednesday 26 Nov 2014 (Local Time) from KBGM Reporting Station
Light Snow Light Snow  
Wind Chill: 33°   Ceiling: 500
Heat Index: 39°   Visibility: 2mi
Dew Point: 26°   Wind: 8mph
Humidity: 60%   Direction: 340°NNW
Pressure: 29.88"   Gusts: NA
Location:  42.26°N, 76.01°W
Report Text: KBGM 270305Z 34007KT 2SM -SN BKN005 OVC049 04/M03 A2988 RMK AO2 SFC VIS 3 P0000 T00391033 $
Loading
Personal Weather Stations






























Interactive Weather Map New forecast layout! Learn more

10-Day Weather Forecast

Advertisements
Track Severe Weather on mobile